Station Historical Data
Daily Summary for October 3, 2017 Units:  Metric    English   Both
« Previous Day
Next Day »
Daily Weekly Monthly Yearly Custom
  High: Low: Average:
Temperature: 25.3 °C 7.2 °C 16.3 °C
Dew Point: 11.9 °C 5.2 °C 9.1 °C
Humidity: 88% 37% 65%
Wind Speed: 16.1km/h 0km/h 2.3km/h
Wind Gust: 24.1km/h - -
Wind- - SW
Pressure: 1032.1 hPa 1028 hPa -
Precipitation: 0 mm    
Historical Graphs
 
 
Tabular Data for October 3, 2017
Time Temperature Dew Point Pressure Wind Wind Speed Wind Gust Humidity Rainfall Rate (Hourly)
00:04 11.2 °C 7.3 °C 1029.3 hPa Calm     77% 0 mm
00:09 11.1 °C 7.4 °C 1029.3 hPa Calm     78% 0 mm
00:14 11 °C 7.3 °C 1029.3 hPa Calm     78% 0 mm
00:19 10.9 °C 7.3 °C 1029.3 hPa Calm     78% 0 mm
00:24 10.8 °C 7.2 °C 1029.3 hPa Calm     78% 0 mm
00:29 10.8 °C 7.3 °C 1029.3 hPa Calm     79% 0 mm
00:34 10.8 °C 7.3 °C 1029.3 hPa Calm     79% 0 mm
00:39 10.9 °C 7.3 °C 1029.3 hPa Calm     78% 0 mm
00:44 11 °C 7.3 °C 1029.3 hPa Calm     78% 0 mm
00:49 11 °C 7.3 °C 1029.3 hPa Calm     78% 0 mm
00:54 11 °C 7.3 °C 1029.3 hPa Calm     78% 0 mm
00:59 10.9 °C 7.3 °C 1029.3 hPa Calm     78% 0 mm
01:04 10.8 °C 7.1 °C 1029.3 hPa Calm     78% 0 mm
01:09 10.3 °C 6.7 °C 1029.3 hPa Calm     78% 0 mm
01:14 10.1 °C 6.6 °C 1029.3 hPa Calm     79% 0 mm
01:19 9.8 °C 6.6 °C 1029.3 hPa Calm     80% 0 mm
01:24 9.7 °C 6.6 °C 1029.3 hPa Calm     81% 0 mm
01:29 9.6 °C 6.5 °C 1029.3 hPa Calm     81% 0 mm
01:34 9.6 °C 6.4 °C 1029.3 hPa Calm     81% 0 mm
01:39 9.4 °C 6.5 °C 1029.3 hPa Calm     82% 0 mm
01:44 9.6 °C 6.8 °C 1029.3 hPa Calm     83% 0 mm
01:49 9.6 °C 6.6 °C 1029.3 hPa Calm     82% 0 mm
01:54 9.3 °C 6.4 °C 1029.3 hPa Calm     82% 0 mm
01:59 9.3 °C 6.6 °C 1029.3 hPa Calm     83% 0 mm
02:04 9.3 °C 6.6 °C 1029.3 hPa Calm     83% 0 mm
02:09 9.1 °C 6.3 °C 1029.7 hPa Calm     83% 0 mm
02:14 8.8 °C 6.1 °C 1029.7 hPa Calm     83% 0 mm
02:19 8.8 °C 6.2 °C 1029.3 hPa Calm     84% 0 mm
02:24 8.9 °C 6.5 °C 1029.7 hPa Calm     85% 0 mm
02:29 9 °C 6.4 °C 1029.7 hPa Calm     84% 0 mm
02:34 9.1 °C 6.5 °C 1029.7 hPa Calm     84% 0 mm
02:39 9.1 °C 6.6 °C 1029.3 hPa Calm     84% 0 mm
02:44 9.1 °C 6.3 °C 1029.3 hPa Calm     83% 0 mm
02:49 8.9 °C 6.2 °C 1029.3 hPa Calm     83% 0 mm
02:54 8.8 °C 6.3 °C 1029.3 hPa Calm     84% 0 mm
02:59 8.8 °C 6.3 °C 1029.3 hPa Calm     84% 0 mm
03:04 8.7 °C 6.1 °C 1029.3 hPa Calm     84% 0 mm
03:09 8.4 °C 5.8 °C 1029.3 hPa Calm     84% 0 mm
03:14 8.3 °C 5.8 °C 1029.3 hPa Calm     84% 0 mm
03:19 8.2 °C 5.8 °C 1029.3 hPa Calm     85% 0 mm
03:24 8.2 °C 5.8 °C 1029.3 hPa Calm     85% 0 mm
03:29 8.2 °C 5.8 °C 1029.3 hPa Calm     85% 0 mm
03:34 8.1 °C 5.7 °C 1029.3 hPa Calm     85% 0 mm
03:39 8 °C 5.8 °C 1029.3 hPa Calm     86% 0 mm
03:44 7.9 °C 5.7 °C 1029.7 hPa Calm     86% 0 mm
03:49 8 °C 5.8 °C 1029.3 hPa Calm     86% 0 mm
03:54 7.9 °C 5.7 °C 1029.7 hPa Calm     86% 0 mm
03:59 8.2 °C 6.1 °C 1029.7 hPa Calm     87% 0 mm
04:04 8.1 °C 5.8 °C 1029.7 hPa Calm     86% 0 mm
04:09 7.9 °C 5.7 °C 1029.7 hPa Calm     86% 0 mm
04:14 7.8 °C 5.6 °C 1029.7 hPa Calm     86% 0 mm
04:19 7.7 °C 5.5 °C 1029.7 hPa Calm     86% 0 mm
04:24 7.7 °C 5.5 °C 1030 hPa Calm     86% 0 mm
04:29 7.6 °C 5.4 °C 1029.7 hPa Calm     86% 0 mm
04:34 7.6 °C 5.6 °C 1029.7 hPa Calm     87% 0 mm
04:39 7.4 °C 5.3 °C 1029.7 hPa Calm     86% 0 mm
04:44 7.4 °C 5.4 °C 1029.7 hPa Calm     87% 0 mm
04:49 7.6 °C 5.6 °C 1029.7 hPa Calm     87% 0 mm
04:54 7.8 °C 5.7 °C 1030 hPa Calm     87% 0 mm
04:59 7.7 °C 5.7 °C 1030 hPa Calm     87% 0 mm
05:04 7.7 °C 5.7 °C 1030 hPa Calm     87% 0 mm
05:09 7.6 °C 5.4 °C 1030 hPa Calm     86% 0 mm
05:14 7.4 °C 5.4 °C 1030 hPa Calm     87% 0 mm
05:24 7.5 °C 5.5 °C 1030 hPa Calm     87% 0 mm
05:29 7.4 °C 5.4 °C 1030 hPa Calm     87% 0 mm
05:34 7.3 °C 5.3 °C 1030 hPa Calm     87% 0 mm
05:39 7.3 °C 5.3 °C 1030 hPa Calm     87% 0 mm
05:44 7.3 °C 5.3 °C 1030 hPa Calm     87% 0 mm
05:49 7.3 °C 5.3 °C 1030 hPa Calm     87% 0 mm
05:54 7.2 °C 5.2 °C 1030.4 hPa Calm     87% 0 mm
05:59 7.3 °C 5.4 °C 1030.4 hPa Calm     88% 0 mm
06:04 7.4 °C 5.4 °C 1030.7 hPa Calm     87% 0 mm
06:09 7.4 °C 5.4 °C 1030.4 hPa Calm     87% 0 mm
06:14 7.6 °C 5.7 °C 1030.4 hPa Calm     88% 0 mm
06:19 7.8 °C 5.8 °C 1030.7 hPa Calm     87% 0 mm
06:24 7.9 °C 5.7 °C 1030.7 hPa Calm     86% 0 mm
06:29 8.1 °C 5.8 °C 1030.7 hPa Calm     86% 0 mm
06:34 8.1 °C 5.9 °C 1030.7 hPa Calm     86% 0 mm
06:39 8.1 °C 5.8 °C 1031 hPa Calm     86% 0 mm
06:44 8.1 °C 5.9 °C 1031 hPa Calm     86% 0 mm
06:49 7.9 °C 5.6 °C 1031 hPa Calm     85% 0 mm
06:54 7.7 °C 5.3 °C 1031 hPa Calm     85% 0 mm
06:59 7.8 °C 5.6 °C 1031 hPa Calm     86% 0 mm
07:04 7.8 °C 5.4 °C 1031 hPa Calm     85% 0 mm
07:09 7.7 °C 5.5 °C 1031 hPa Calm     86% 0 mm
07:14 7.7 °C 5.5 °C 1031 hPa Calm     86% 0 mm
07:19 8.1 °C 5.8 °C 1031 hPa Calm     86% 0 mm
07:24 8.3 °C 6.1 °C 1031 hPa Calm     86% 0 mm
07:29 8.5 °C 6.1 °C 1031 hPa Calm     85% 0 mm
07:34 8.6 °C 6.2 °C 1031 hPa Calm     85% 0 mm
07:39 8.8 °C 6.2 °C 1031.4 hPa Calm     84% 0 mm
07:44 9 °C 6.3 °C 1031.4 hPa Calm     83% 0 mm
07:49 9.2 °C 6.4 °C 1031.4 hPa Calm     83% 0 mm
07:54 9.2 °C 6.5 °C 1031.4 hPa Calm     83% 0 mm
07:59 9.6 °C 6.6 °C 1031.4 hPa Calm     82% 0 mm
08:04 9.8 °C 6.9 °C 1031.4 hPa Calm     82% 0 mm
08:09 10.1 °C 7 °C 1031.7 hPa Calm     81% 0 mm
08:14 10.4 °C 7.1 °C 1031.7 hPa Calm     80% 0 mm
08:19 10.7 °C 7.2 °C 1031.7 hPa Calm     79% 0 mm
08:24 10.8 °C 7.3 °C 1031.7 hPa Calm     79% 0 mm
08:29 11.1 °C 7.4 °C 1031.7 hPa Calm     78% 0 mm
08:34 11.3 °C 7.6 °C 1031.7 hPa Calm     78% 0 mm
08:39 11.7 °C 7.8 °C 1031.7 hPa Calm     77% 0 mm
08:44 12.2 °C 8.1 °C 1031.7 hPa Calm     76% 0 mm
08:49 12.7 °C 8.2 °C 1031.7 hPa Calm     74% 0 mm
08:54 13.1 °C 8.4 °C 1031.7 hPa Calm     73% 0 mm
08:59 13.6 °C 8.7 °C 1031.7 hPa Calm     72% 0 mm
09:04 13.8 °C 8.7 °C 1031.7 hPa Calm     71% 0 mm
09:09 14.2 °C 8.8 °C 1031.7 hPa Calm     70% 0 mm
09:14 14.4 °C 9 °C 1032.1 hPa Calm     70% 0 mm
09:19 14.9 °C 9.1 °C 1032.1 hPa Calm   3.2 km/h 68% 0 mm
09:24 15.2 °C 9.1 °C 1032.1 hPa SSW 1.6 km/h 4.8 km/h 67% 0 mm
09:29 15.5 °C 9.2 °C 1032.1 hPa Calm   4.8 km/h 66% 0 mm
09:34 15.9 °C 9.6 °C 1032.1 hPa Calm   4.8 km/h 66% 0 mm
09:39 16.3 °C 9.5 °C 1032.1 hPa Calm   4.8 km/h 64% 0 mm
09:44 16.8 °C 9.7 °C 1032.1 hPa SSW 1.6 km/h 4.8 km/h 63% 0 mm
09:49 17.3 °C 10.4 °C 1031.7 hPa South 1.6 km/h 6.4 km/h 64% 0 mm
09:54 17.7 °C 10.3 °C 1031.7 hPa SW 6.4 km/h 8 km/h 62% 0 mm
09:59 17.9 °C 10.3 °C 1031.7 hPa Calm   9.7 km/h 61% 0 mm
10:04 18.2 °C 10.6 °C 1031.4 hPa SSW 9.7 km/h 11.3 km/h 61% 0 mm
10:09 18.4 °C 10.5 °C 1031.4 hPa SSW 4.8 km/h 14.5 km/h 60% 0 mm
10:14 18.5 °C 10.6 °C 1031.4 hPa SSW 6.4 km/h 14.5 km/h 60% 0 mm
10:19 18.8 °C 10.6 °C 1031.7 hPa SSW 6.4 km/h 14.5 km/h 59% 0 mm
10:24 19.3 °C 10.8 °C 1031.7 hPa WSW 1.6 km/h 12.9 km/h 58% 0 mm
10:29 19.8 °C 11 °C 1031.7 hPa SSW 1.6 km/h 12.9 km/h 57% 0 mm
10:34 20 °C 10.9 °C 1031.7 hPa SSW 6.4 km/h 11.3 km/h 56% 0 mm
10:39 20.4 °C 11.1 °C 1031.7 hPa SSW 4.8 km/h 11.3 km/h 55% 0 mm
10:44 20.2 °C 10.3 °C 1031.7 hPa SSW 6.4 km/h 14.5 km/h 53% 0 mm
10:49 20.4 °C 10.6 °C 1031.7 hPa SSW 6.4 km/h 14.5 km/h 53% 0 mm
10:54 20.7 °C 10.4 °C 1031.4 hPa SSW 6.4 km/h 14.5 km/h 52% 0 mm
10:59 21.1 °C 11.9 °C 1031.4 hPa SSW 4.8 km/h 11.3 km/h 56% 0 mm
11:04 21.3 °C 11.3 °C 1031.4 hPa SSW 6.4 km/h 12.9 km/h 53% 0 mm
11:09 21.4 °C 10.9 °C 1031.4 hPa SSW 6.4 km/h 16.1 km/h 51% 0 mm
11:14 21.6 °C 11.3 °C 1031.4 hPa SSW 8 km/h 16.1 km/h 52% 0 mm
11:19 21.9 °C 11.3 °C 1031.4 hPa SW 6.4 km/h 14.5 km/h 51% 0 mm
11:24 21.9 °C 11.3 °C 1031.4 hPa SW 8 km/h 16.1 km/h 51% 0 mm
11:29 22.1 °C 11.5 °C 1031.4 hPa SW 1.6 km/h 14.5 km/h 51% 0 mm
11:34 22.6 °C 11.3 °C 1031 hPa Calm   12.9 km/h 49% 0 mm
11:39 22.6 °C 10.7 °C 1031 hPa SSW 4.8 km/h 12.9 km/h 47% 0 mm
11:44 22.7 °C 11.7 °C 1031 hPa SW 6.4 km/h 14.5 km/h 50% 0 mm
11:49 22.9 °C 10.7 °C 1031 hPa SW 8 km/h 22.5 km/h 46% 0 mm
11:54 23 °C 11.4 °C 1031 hPa SW 6.4 km/h 22.5 km/h 48% 0 mm
11:59 22.9 °C 10.7 °C 1030.7 hPa SW 6.4 km/h 17.7 km/h 46% 0 mm
12:04 23 °C 10.8 °C 1030.7 hPa SW 1.6 km/h 12.9 km/h 46% 0 mm
12:09 23 °C 10.8 °C 1030.7 hPa SW 6.4 km/h 12.9 km/h 46% 0 mm
12:14 23.1 °C 10.8 °C 1030.7 hPa West 8 km/h 17.7 km/h 46% 0 mm
12:19 23.1 °C 10.5 °C 1030.7 hPa SW 3.2 km/h 20.9 km/h 45% 0 mm
12:24 23.3 °C 10.7 °C 1030.7 hPa SW 6.4 km/h 17.7 km/h 45% 0 mm
12:29 22.9 °C 10.1 °C 1030.7 hPa WSW 4.8 km/h 24.1 km/h 44% 0 mm
12:34 23.2 °C 10.6 °C 1030.7 hPa SW 8 km/h 12.9 km/h 45% 0 mm
12:44 23.5 °C 10.9 °C 1030.7 hPa WSW 8 km/h 19.3 km/h 45% 0 mm
12:49 23.3 °C 10.3 °C 1030.7 hPa WSW 9.7 km/h 19.3 km/h 44% 0 mm
12:54 23.4 °C 10.5 °C 1030.7 hPa WSW 9.7 km/h 22.5 km/h 44% 0 mm
12:59 23.4 °C 10.8 °C 1030.7 hPa WSW 9.7 km/h 22.5 km/h 45% 0 mm
13:04 23.8 °C 11.2 °C 1030.7 hPa WSW 12.9 km/h 14.5 km/h 45% 0 mm
13:09 23.8 °C 11.8 °C 1030.4 hPa SW 8 km/h 14.5 km/h 47% 0 mm
13:14 23.9 °C 10.6 °C 1030.4 hPa SW 3.2 km/h 12.9 km/h 43% 0 mm
13:19 23.9 °C 11.3 °C 1030.4 hPa SSW 6.4 km/h 17.7 km/h 45% 0 mm
13:24 23.9 °C 11.2 °C 1030.4 hPa West 9.7 km/h 14.5 km/h 45% 0 mm
13:29 23.8 °C 10.8 °C 1030.7 hPa West 9.7 km/h 20.9 km/h 44% 0 mm
13:34 23.7 °C 10.4 °C 1030.7 hPa West 6.4 km/h 17.7 km/h 43% 0 mm
13:39 24 °C 11.3 °C 1030.7 hPa WSW 8 km/h 19.3 km/h 45% 0 mm
13:44 24.2 °C 10.8 °C 1030.7 hPa WSW 8 km/h 19.3 km/h 43% 0 mm
13:49 23.9 °C 10.2 °C 1030.4 hPa WSW 8 km/h 17.7 km/h 42% 0 mm
13:54 24.1 °C 10.3 °C 1030.4 hPa WSW 8 km/h 17.7 km/h 42% 0 mm
13:59 24.1 °C 10.3 °C 1030.4 hPa West 9.7 km/h 17.7 km/h 42% 0 mm
14:04 24.2 °C 10.8 °C 1030.4 hPa SSW 4.8 km/h 14.5 km/h 43% 0 mm
14:09 24.3 °C 10.9 °C 1030.4 hPa WSW 8 km/h 19.3 km/h 43% 0 mm
14:14 24.5 °C 11.1 °C 1030.4 hPa WSW 6.4 km/h 19.3 km/h 43% 0 mm
14:19 24.6 °C 11.2 °C 1030.4 hPa West 6.4 km/h 11.3 km/h 43% 0 mm
14:24 24.6 °C 10.4 °C 1030 hPa WSW 3.2 km/h 12.9 km/h 41% 0 mm
14:29 24.3 °C 10.6 °C 1030.4 hPa WSW 9.7 km/h 14.5 km/h 42% 0 mm
14:34 24.5 °C 10 °C 1030 hPa WSW 6.4 km/h 12.9 km/h 40% 0 mm
14:39 24.6 °C 11.2 °C 1030 hPa SW 9.7 km/h 14.5 km/h 43% 0 mm
14:44 24.4 °C 10.3 °C 1030 hPa WSW 8 km/h 14.5 km/h 41% 0 mm
14:54 24.6 °C 9.7 °C 1030 hPa WSW 11.3 km/h 17.7 km/h 39% 0 mm
14:59 24.6 °C 9.3 °C 1030 hPa WSW 9.7 km/h 17.7 km/h 38% 0 mm
15:04 24.7 °C 10.2 °C 1030 hPa SW 16.1 km/h 17.7 km/h 40% 0 mm
15:14 25 °C 10.1 °C 1029.7 hPa WSW 6.4 km/h 17.7 km/h 39% 0 mm
15:19 25.3 °C 10.7 °C 1029.7 hPa WSW 4.8 km/h 11.3 km/h 40% 0 mm
15:24 24.9 °C 9.2 °C 1029.7 hPa WSW 6.4 km/h 16.1 km/h 37% 0 mm
15:29 24.7 °C 9.4 °C 1029.7 hPa SW 6.4 km/h 16.1 km/h 38% 0 mm
15:34 24.7 °C 9.8 °C 1029.7 hPa WSW 16.1 km/h 16.1 km/h 39% 0 mm
15:39 25 °C 10.8 °C 1029.7 hPa WSW 8 km/h 16.1 km/h 41% 0 mm
15:44 25 °C 9.7 °C 1029.7 hPa WSW 4.8 km/h 12.9 km/h 38% 0 mm
15:49 25.1 °C 10.6 °C 1029.7 hPa WSW 8 km/h 14.5 km/h 40% 0 mm
15:54 25.1 °C 10.1 °C 1029.3 hPa WSW 6.4 km/h 12.9 km/h 39% 0 mm
15:59 25 °C 10.4 °C 1029.3 hPa WSW 4.8 km/h 16.1 km/h 40% 0 mm
16:04 25 °C 10.8 °C 1029.3 hPa SW 6.4 km/h 14.5 km/h 41% 0 mm
16:09 24.9 °C 10.1 °C 1029.3 hPa WSW 6.4 km/h 14.5 km/h 39% 0 mm
16:14 24.9 °C 10 °C 1029.3 hPa WSW 6.4 km/h 14.5 km/h 39% 0 mm
16:19 24.9 °C 10.3 °C 1029.3 hPa SW 8 km/h 14.5 km/h 40% 0 mm
16:24 24.8 °C 10.7 °C 1029 hPa SW 6.4 km/h 14.5 km/h 41% 0 mm
16:29 24.9 °C 10.8 °C 1029 hPa SW 4.8 km/h 11.3 km/h 41% 0 mm
16:34 25.1 °C 11.2 °C 1029 hPa WSW 4.8 km/h 9.7 km/h 42% 0 mm
16:39 24.9 °C 10.4 °C 1029 hPa SW 3.2 km/h 11.3 km/h 40% 0 mm
16:44 24.8 °C 10.7 °C 1029 hPa WSW 6.4 km/h 11.3 km/h 41% 0 mm
16:49 24.7 °C 10.6 °C 1029 hPa WSW 3.2 km/h 11.3 km/h 41% 0 mm
16:59 24.7 °C 10.6 °C 1029 hPa SSW 8 km/h 12.9 km/h 41% 0 mm
17:04 24.4 °C 10.3 °C 1029 hPa West 3.2 km/h 11.3 km/h 41% 0 mm
17:09 24.4 °C 10.3 °C 1028.7 hPa SW 6.4 km/h 11.3 km/h 41% 0 mm
17:14 24.4 °C 10.7 °C 1028.7 hPa SW 4.8 km/h 11.3 km/h 42% 0 mm
17:19 24.3 °C 10.2 °C 1028.7 hPa SW 4.8 km/h 11.3 km/h 41% 0 mm
17:24 24.1 °C 10.4 °C 1028.7 hPa WSW 4.8 km/h 11.3 km/h 42% 0 mm
17:29 23.9 °C 10.6 °C 1028.7 hPa WSW 4.8 km/h 9.7 km/h 43% 0 mm
17:34 23.9 °C 10.2 °C 1028.7 hPa SW 3.2 km/h 8 km/h 42% 0 mm
17:39 23.8 °C 10.5 °C 1028.7 hPa WSW 3.2 km/h 9.7 km/h 43% 0 mm
17:44 23.6 °C 10.3 °C 1028.7 hPa WSW 3.2 km/h 9.7 km/h 43% 0 mm
17:49 23.4 °C 10.5 °C 1028.7 hPa Calm   4.8 km/h 44% 0 mm
17:54 23.3 °C 10.7 °C 1028.7 hPa WSW 1.6 km/h 4.8 km/h 45% 0 mm
17:59 23.2 °C 10.6 °C 1028.7 hPa Calm   3.2 km/h 45% 0 mm
18:04 23.1 °C 10.5 °C 1028.7 hPa SW 4.8 km/h 6.4 km/h 45% 0 mm
18:09 22.9 °C 10.7 °C 1028.7 hPa WSW 1.6 km/h 6.4 km/h 46% 0 mm
18:14 22.7 °C 10.5 °C 1028.7 hPa SW 1.6 km/h 4.8 km/h 46% 0 mm
18:19 22.6 °C 10.7 °C 1028.7 hPa Calm   4.8 km/h 47% 0 mm
18:24 22.4 °C 10.9 °C 1028.7 hPa Calm   3.2 km/h 48% 0 mm
18:29 22.1 °C 10.9 °C 1028.7 hPa Calm     49% 0 mm
18:34 21.7 °C 10.6 °C 1028.7 hPa Calm     49% 0 mm
18:39 21.4 °C 10.6 °C 1028.7 hPa Calm     50% 0 mm
18:44 21.3 °C 10.5 °C 1028.7 hPa Calm     50% 0 mm
18:49 20.9 °C 10.7 °C 1028.7 hPa Calm     52% 0 mm
18:54 20.6 °C 10.7 °C 1028.7 hPa Calm     53% 0 mm
18:59 20.1 °C 10.5 °C 1028.7 hPa Calm     54% 0 mm
19:04 19.8 °C 10.7 °C 1028.7 hPa Calm     56% 0 mm
19:09 19.5 °C 10.8 °C 1028.7 hPa Calm     57% 0 mm
19:14 19.4 °C 10.7 °C 1028.7 hPa Calm     57% 0 mm
19:19 19.3 °C 10.8 °C 1028.3 hPa Calm     58% 0 mm
19:24 19.1 °C 10.8 °C 1028.3 hPa Calm     59% 0 mm
19:29 18.8 °C 10.8 °C 1028.3 hPa Calm     60% 0 mm
19:34 18.7 °C 10.7 °C 1028.3 hPa Calm     60% 0 mm
19:39 18.4 °C 10.8 °C 1028.3 hPa Calm     61% 0 mm
19:44 18.3 °C 10.9 °C 1028.3 hPa Calm     62% 0 mm
19:49 18.2 °C 10.6 °C 1028.3 hPa Calm     61% 0 mm
19:59 17.9 °C 10.7 °C 1028.3 hPa Calm     63% 0 mm
20:04 17.7 °C 10.8 °C 1028.3 hPa Calm     64% 0 mm
20:09 17.6 °C 10.9 °C 1028.3 hPa Calm     65% 0 mm
20:14 17.6 °C 10.9 °C 1028.3 hPa Calm     65% 0 mm
20:19 17.6 °C 10.9 °C 1028.3 hPa Calm     65% 0 mm
20:24 17.8 °C 10.9 °C 1028.3 hPa Calm     64% 0 mm
20:29 17.8 °C 10.9 °C 1028.3 hPa Calm     64% 0 mm
20:34 17.6 °C 11.2 °C 1028.3 hPa Calm     66% 0 mm
20:39 17.6 °C 11.2 °C 1028.3 hPa Calm     66% 0 mm
20:44 17.8 °C 11.3 °C 1028.3 hPa Calm     66% 0 mm
20:49 17.8 °C 11.4 °C 1028.3 hPa Calm   1.6 km/h 66% 0 mm
20:54 17.8 °C 11.4 °C 1028.3 hPa Calm   1.6 km/h 66% 0 mm
20:59 17.8 °C 11.6 °C 1028.3 hPa Calm   3.2 km/h 67% 0 mm
21:04 17.7 °C 11.4 °C 1028.3 hPa SSW 1.6 km/h 1.6 km/h 67% 0 mm
21:09 17.5 °C 11.5 °C 1028.3 hPa Calm   1.6 km/h 68% 0 mm
21:14 17.5 °C 11.7 °C 1028.3 hPa Calm   1.6 km/h 69% 0 mm
21:19 17.4 °C 11.7 °C 1028.3 hPa Calm     69% 0 mm
21:24 17.3 °C 11.6 °C 1028.3 hPa Calm     69% 0 mm
21:29 17.3 °C 11.8 °C 1028.3 hPa Calm     70% 0 mm
21:34 17.3 °C 11.8 °C 1028.7 hPa Calm     70% 0 mm
21:39 17.2 °C 11.7 °C 1028.7 hPa Calm     70% 0 mm
21:44 17.1 °C 11.8 °C 1028.7 hPa Calm     71% 0 mm
21:49 16.9 °C 11.6 °C 1028.7 hPa Calm     71% 0 mm
21:54 16.9 °C 11.8 °C 1028.7 hPa Calm     72% 0 mm
21:59 16.9 °C 11.8 °C 1028.3 hPa Calm     72% 0 mm
22:04 16.8 °C 11.8 °C 1028.3 hPa Calm     72% 0 mm
22:09 16.7 °C 11.7 °C 1028.3 hPa Calm     72% 0 mm
22:14 16.6 °C 11.7 °C 1028.3 hPa Calm     73% 0 mm
22:19 16.4 °C 11.6 °C 1028.3 hPa Calm     73% 0 mm
22:24 16.4 °C 11.6 °C 1028.3 hPa Calm     73% 0 mm
22:29 16.3 °C 11.5 °C 1028.7 hPa Calm     73% 0 mm
22:34 16.3 °C 11.4 °C 1028.7 hPa Calm     73% 0 mm
22:39 16.1 °C 11.3 °C 1028.7 hPa Calm     73% 0 mm
22:44 16.2 °C 11.3 °C 1028.7 hPa Calm     73% 0 mm
22:49 16 °C 11.2 °C 1028.3 hPa Calm     73% 0 mm
22:54 16 °C 11.2 °C 1028.7 hPa Calm   9.7 km/h 73% 0 mm
22:59 16.3 °C 11.2 °C 1028.7 hPa Calm   4.8 km/h 72% 0 mm
23:04 16.6 °C 11.3 °C 1028.3 hPa SSW 4.8 km/h 8 km/h 71% 0 mm
23:09 16.9 °C 11.4 °C 1028.3 hPa SSE 1.6 km/h 6.4 km/h 70% 0 mm
23:14 17.3 °C 11.6 °C 1028.3 hPa South 3.2 km/h 9.7 km/h 69% 0 mm
23:19 17.6 °C 11.6 °C 1028.3 hPa SSW 3.2 km/h 9.7 km/h 68% 0 mm
23:24 17.9 °C 11.7 °C 1028.3 hPa SSW 3.2 km/h 9.7 km/h 67% 0 mm
23:29 18.1 °C 11.7 °C 1028.3 hPa SSW 4.8 km/h 11.3 km/h 66% 0 mm
23:34 18.2 °C 11.8 °C 1028 hPa SSW 4.8 km/h 11.3 km/h 66% 0 mm
23:39 18.3 °C 11.8 °C 1028 hPa SSW 4.8 km/h 9.7 km/h 66% 0 mm
23:44 18.2 °C 11.8 °C 1028 hPa SSW 1.6 km/h 8 km/h 66% 0 mm
23:49 18.2 °C 11.8 °C 1028 hPa South 3.2 km/h 12.9 km/h 66% 0 mm
23:54 18.2 °C 11.8 °C 1028 hPa SSW 3.2 km/h 12.9 km/h 66% 0 mm
23:59 18.2 °C 11.8 °C 1028 hPa Calm   12.9 km/h 66% 0 mm
Buffalo, New York, USA
Compliments of Weather Underground - 2.5 mb